sensor_id;sensor_type;location;lat;lon;timestamp;pressure;altitude;pressure_sealevel;temperature;humidity
78210;BME280;67485;48.816;9.930;2024-01-11T00:01:08;97754.63;;;-5.27;88.36
78210;BME280;67485;48.816;9.930;2024-01-11T00:03:35;97756.56;;;-5.23;88.51
78210;BME280;67485;48.816;9.930;2024-01-11T00:06:01;97746.97;;;-5.27;88.50
78210;BME280;67485;48.816;9.930;2024-01-11T00:08:27;97747.69;;;-5.30;88.19
78210;BME280;67485;48.816;9.930;2024-01-11T00:10:52;97753.94;;;-5.41;88.33
78210;BME280;67485;48.816;9.930;2024-01-11T00:13:18;97756.25;;;-5.46;88.33
78210;BME280;67485;48.816;9.930;2024-01-11T00:15:44;97754.34;;;-5.50;88.64
78210;BME280;67485;48.816;9.930;2024-01-11T00:18:09;97743.34;;;-5.49;88.59
78210;BME280;67485;48.816;9.930;2024-01-11T00:20:35;97746.28;;;-5.41;88.64
78210;BME280;67485;48.816;9.930;2024-01-11T00:31:27;97744.78;;;-5.54;88.49
78210;BME280;67485;48.816;9.930;2024-01-11T00:33:53;97747.16;;;-5.57;88.76
78210;BME280;67485;48.816;9.930;2024-01-11T00:44:30;97747.03;;;-5.60;89.89
78210;BME280;67485;48.816;9.930;2024-01-11T00:46:56;97747.34;;;-5.54;90.35
78210;BME280;67485;48.816;9.930;2024-01-11T00:49:22;97746.03;;;-5.46;89.28
78210;BME280;67485;48.816;9.930;2024-01-11T00:51:48;97739.00;;;-5.33;88.81
78210;BME280;67485;48.816;9.930;2024-01-11T00:54:14;97749.88;;;-5.38;88.75
78210;BME280;67485;48.816;9.930;2024-01-11T00:56:39;97751.47;;;-5.40;88.56
78210;BME280;67485;48.816;9.930;2024-01-11T00:59:05;97752.78;;;-5.48;88.20
78210;BME280;67485;48.816;9.930;2024-01-11T01:01:30;97756.13;;;-5.49;88.11
78210;BME280;67485;48.816;9.930;2024-01-11T01:03:56;97755.81;;;-5.55;88.30
78210;BME280;67485;48.816;9.930;2024-01-11T01:06:22;97754.22;;;-5.53;88.10
78210;BME280;67485;48.816;9.930;2024-01-11T01:08:47;97758.44;;;-5.54;88.86
78210;BME280;67485;48.816;9.930;2024-01-11T01:11:13;97755.81;;;-5.55;88.49
78210;BME280;67485;48.816;9.930;2024-01-11T01:13:39;97757.91;;;-5.64;88.41
78210;BME280;67485;48.816;9.930;2024-01-11T01:16:04;97766.03;;;-5.72;88.50
78210;BME280;67485;48.816;9.930;2024-01-11T01:18:30;97766.09;;;-5.70;89.30
78210;BME280;67485;48.816;9.930;2024-01-11T01:20:56;97776.31;;;-5.70;88.92
78210;BME280;67485;48.816;9.930;2024-01-11T01:23:21;97774.00;;;-5.65;88.78
78210;BME280;67485;48.816;9.930;2024-01-11T01:25:48;97778.94;;;-5.68;88.80
78210;BME280;67485;48.816;9.930;2024-01-11T01:28:13;97786.53;;;-5.70;88.62
78210;BME280;67485;48.816;9.930;2024-01-11T01:30:39;97781.03;;;-5.61;88.80
78210;BME280;67485;48.816;9.930;2024-01-11T01:33:04;97785.47;;;-5.57;88.16
78210;BME280;67485;48.816;9.930;2024-01-11T01:35:30;97790.44;;;-5.60;88.13
78210;BME280;67485;48.816;9.930;2024-01-11T01:37:56;97782.47;;;-5.66;88.09
78210;BME280;67485;48.816;9.930;2024-01-11T01:40:21;97793.31;;;-5.71;88.14
78210;BME280;67485;48.816;9.930;2024-01-11T01:42:48;97799.75;;;-5.77;88.89
78210;BME280;67485;48.816;9.930;2024-01-11T01:45:15;97790.44;;;-5.77;88.33
78210;BME280;67485;48.816;9.930;2024-01-11T01:47:41;97799.03;;;-5.75;88.68
78210;BME280;67485;48.816;9.930;2024-01-11T01:50:10;97800.28;;;-5.68;89.26
78210;BME280;67485;48.816;9.930;2024-01-11T01:52:36;97797.31;;;-5.76;88.35
78210;BME280;67485;48.816;9.930;2024-01-11T01:55:04;97793.13;;;-5.90;89.29
78210;BME280;67485;48.816;9.930;2024-01-11T01:57:32;97795.94;;;-5.86;89.39
78210;BME280;67485;48.816;9.930;2024-01-11T01:59:58;97795.22;;;-5.83;89.52
78210;BME280;67485;48.816;9.930;2024-01-11T02:02:24;97799.13;;;-5.90;89.50
78210;BME280;67485;48.816;9.930;2024-01-11T02:04:50;97804.94;;;-5.92;89.79
78210;BME280;67485;48.816;9.930;2024-01-11T02:07:17;97799.53;;;-5.98;89.61
78210;BME280;67485;48.816;9.930;2024-01-11T02:09:44;97797.91;;;-5.96;90.17
78210;BME280;67485;48.816;9.930;2024-01-11T02:12:10;97801.16;;;-6.00;90.06
78210;BME280;67485;48.816;9.930;2024-01-11T02:14:37;97805.72;;;-6.10;90.40
78210;BME280;67485;48.816;9.930;2024-01-11T02:17:03;97807.72;;;-6.21;90.33
78210;BME280;67485;48.816;9.930;2024-01-11T02:19:29;97807.63;;;-6.22;91.44
78210;BME280;67485;48.816;9.930;2024-01-11T02:21:55;97810.34;;;-6.19;91.70
78210;BME280;67485;48.816;9.930;2024-01-11T02:24:24;97806.94;;;-6.20;91.53
78210;BME280;67485;48.816;9.930;2024-01-11T02:27:03;97800.28;;;-6.16;91.93
78210;BME280;67485;48.816;9.930;2024-01-11T02:29:30;97802.94;;;-6.14;91.91
78210;BME280;67485;48.816;9.930;2024-01-11T02:31:56;97806.38;;;-6.14;91.47
78210;BME280;67485;48.816;9.930;2024-01-11T02:34:26;97803.56;;;-6.19;91.35
78210;BME280;67485;48.816;9.930;2024-01-11T02:36:53;97803.75;;;-6.15;91.81
78210;BME280;67485;48.816;9.930;2024-01-11T02:39:19;97802.84;;;-6.16;91.56
78210;BME280;67485;48.816;9.930;2024-01-11T02:41:47;97806.94;;;-6.20;91.44
78210;BME280;67485;48.816;9.930;2024-01-11T02:44:15;97800.66;;;-6.25;91.62
78210;BME280;67485;48.816;9.930;2024-01-11T02:46:40;97799.97;;;-6.22;91.43
78210;BME280;67485;48.816;9.930;2024-01-11T02:49:06;97788.34;;;-6.17;91.90
78210;BME280;67485;48.816;9.930;2024-01-11T02:51:31;97796.41;;;-6.09;91.75
78210;BME280;67485;48.816;9.930;2024-01-11T02:53:57;97794.66;;;-6.10;91.53
78210;BME280;67485;48.816;9.930;2024-01-11T02:56:23;97791.47;;;-6.06;91.56
78210;BME280;67485;48.816;9.930;2024-01-11T02:58:49;97780.41;;;-6.07;91.38
78210;BME280;67485;48.816;9.930;2024-01-11T03:01:15;97777.19;;;-6.03;91.50
78210;BME280;67485;48.816;9.930;2024-01-11T03:03:41;97770.34;;;-6.04;91.05
78210;BME280;67485;48.816;9.930;2024-01-11T03:06:07;97774.88;;;-5.98;90.23
78210;BME280;67485;48.816;9.930;2024-01-11T03:08:33;97775.63;;;-6.00;90.09
78210;BME280;67485;48.816;9.930;2024-01-11T03:10:59;97773.19;;;-6.14;89.96
78210;BME280;67485;48.816;9.930;2024-01-11T03:13:24;97767.44;;;-6.10;89.88
78210;BME280;67485;48.816;9.930;2024-01-11T03:15:50;97763.44;;;-6.21;90.11
78210;BME280;67485;48.816;9.930;2024-01-11T03:18:16;97767.28;;;-6.29;90.48
78210;BME280;67485;48.816;9.930;2024-01-11T03:20:41;97772.72;;;-6.23;90.66
78210;BME280;67485;48.816;9.930;2024-01-11T03:23:07;97777.97;;;-6.20;90.64
78210;BME280;67485;48.816;9.930;2024-01-11T03:25:33;97783.06;;;-6.20;91.08
78210;BME280;67485;48.816;9.930;2024-01-11T03:27:58;97777.09;;;-6.21;91.19
78210;BME280;67485;48.816;9.930;2024-01-11T03:30:24;97775.09;;;-6.26;91.03
78210;BME280;67485;48.816;9.930;2024-01-11T03:32:50;97771.09;;;-6.21;91.57
78210;BME280;67485;48.816;9.930;2024-01-11T03:35:17;97769.34;;;-6.22;91.60
78210;BME280;67485;48.816;9.930;2024-01-11T03:37:43;97782.03;;;-6.24;91.32
78210;BME280;67485;48.816;9.930;2024-01-11T03:40:09;97772.88;;;-6.20;91.77
78210;BME280;67485;48.816;9.930;2024-01-11T03:42:34;97770.94;;;-6.24;91.00
78210;BME280;67485;48.816;9.930;2024-01-11T03:45:00;97770.94;;;-6.24;90.81
78210;BME280;67485;48.816;9.930;2024-01-11T03:47:26;97777.44;;;-6.14;90.35
78210;BME280;67485;48.816;9.930;2024-01-11T03:49:51;97777.97;;;-6.20;90.39
78210;BME280;67485;48.816;9.930;2024-01-11T03:52:17;97767.75;;;-6.20;90.46
78210;BME280;67485;48.816;9.930;2024-01-11T03:54:42;97772.72;;;-6.23;90.19
78210;BME280;67485;48.816;9.930;2024-01-11T03:57:08;97765.50;;;-6.30;90.25
78210;BME280;67485;48.816;9.930;2024-01-11T03:59:34;97769.19;;;-6.25;89.87
78210;BME280;67485;48.816;9.930;2024-01-11T04:02:00;97772.16;;;-6.17;90.34
78210;BME280;67485;48.816;9.930;2024-01-11T04:04:26;97765.53;;;-6.14;89.76
78210;BME280;67485;48.816;9.930;2024-01-11T04:06:51;97765.88;;;-6.08;89.51
78210;BME280;67485;48.816;9.930;2024-01-11T04:09:20;97766.66;;;-6.09;89.12
78210;BME280;67485;48.816;9.930;2024-01-11T04:11:46;97761.88;;;-6.03;89.39
78210;BME280;67485;48.816;9.930;2024-01-11T04:14:12;97761.31;;;-5.97;88.93
78210;BME280;67485;48.816;9.930;2024-01-11T04:16:42;97768.25;;;-5.94;88.04
78210;BME280;67485;48.816;9.930;2024-01-11T04:19:08;97757.06;;;-5.96;88.15
78210;BME280;67485;48.816;9.930;2024-01-11T04:21:34;97758.22;;;-6.08;87.84
78210;BME280;67485;48.816;9.930;2024-01-11T04:24:00;97760.91;;;-6.21;87.84
78210;BME280;67485;48.816;9.930;2024-01-11T04:26:26;97756.75;;;-6.36;88.62
78210;BME280;67485;48.816;9.930;2024-01-11T04:28:52;97762.28;;;-6.43;88.87
78210;BME280;67485;48.816;9.930;2024-01-11T04:31:18;97771.06;;;-6.38;89.29
78210;BME280;67485;48.816;9.930;2024-01-11T04:33:45;97766.34;;;-6.46;88.78
78210;BME280;67485;48.816;9.930;2024-01-11T04:36:11;97780.16;;;-6.43;89.12
78210;BME280;67485;48.816;9.930;2024-01-11T04:38:37;97770.19;;;-6.38;89.64
78210;BME280;67485;48.816;9.930;2024-01-11T04:41:09;97774.59;;;-6.36;89.03
78210;BME280;67485;48.816;9.930;2024-01-11T04:43:44;97770.28;;;-6.37;88.88
78210;BME280;67485;48.816;9.930;2024-01-11T04:46:17;97773.81;;;-6.34;89.11
78210;BME280;67485;48.816;9.930;2024-01-11T04:48:43;97778.09;;;-6.33;88.33
78210;BME280;67485;48.816;9.930;2024-01-11T04:51:10;97784.38;;;-6.43;88.49
78210;BME280;67485;48.816;9.930;2024-01-11T04:53:40;97785.34;;;-6.56;88.37
78210;BME280;67485;48.816;9.930;2024-01-11T04:56:06;97786.13;;;-6.57;88.93
78210;BME280;67485;48.816;9.930;2024-01-11T04:58:33;97787.75;;;-6.59;88.83
78210;BME280;67485;48.816;9.930;2024-01-11T05:00:59;97784.22;;;-6.61;89.57
78210;BME280;67485;48.816;9.930;2024-01-11T05:03:25;97780.53;;;-6.66;89.69
78210;BME280;67485;48.816;9.930;2024-01-11T05:05:51;97772.88;;;-6.66;89.65
78210;BME280;67485;48.816;9.930;2024-01-11T05:08:16;97770.69;;;-6.75;89.66
78210;BME280;67485;48.816;9.930;2024-01-11T05:10:42;97768.50;;;-6.84;90.16
78210;BME280;67485;48.816;9.930;2024-01-11T05:13:08;97768.34;;;-6.87;89.95
78210;BME280;67485;48.816;9.930;2024-01-11T05:15:34;97756.91;;;-6.79;90.61
78210;BME280;67485;48.816;9.930;2024-01-11T05:18:00;97760.34;;;-6.78;90.95
78210;BME280;67485;48.816;9.930;2024-01-11T05:20:25;97761.22;;;-6.78;91.07
78210;BME280;67485;48.816;9.930;2024-01-11T05:22:51;97765.69;;;-6.74;90.44
78210;BME280;67485;48.816;9.930;2024-01-11T05:25:16;97766.47;;;-6.75;91.01
78210;BME280;67485;48.816;9.930;2024-01-11T05:27:42;97773.19;;;-6.77;90.56
78210;BME280;67485;48.816;9.930;2024-01-11T05:30:08;97781.94;;;-6.72;90.07
78210;BME280;67485;48.816;9.930;2024-01-11T05:32:34;97780.53;;;-6.66;90.50
78210;BME280;67485;48.816;9.930;2024-01-11T05:35:00;97789.50;;;-6.58;90.70
78210;BME280;67485;48.816;9.930;2024-01-11T05:37:25;97792.28;;;-6.54;90.73
78210;BME280;67485;48.816;9.930;2024-01-11T05:39:51;97792.22;;;-6.55;89.85
78210;BME280;67485;48.816;9.930;2024-01-11T05:42:17;97799.59;;;-6.60;90.29
78210;BME280;67485;48.816;9.930;2024-01-11T05:44:43;97801.38;;;-6.59;89.65
78210;BME280;67485;48.816;9.930;2024-01-11T05:47:09;97804.88;;;-6.57;90.06
78210;BME280;67485;48.816;9.930;2024-01-11T05:49:35;97815.16;;;-6.55;90.14
78210;BME280;67485;48.816;9.930;2024-01-11T05:52:00;97818.78;;;-6.66;89.90
78210;BME280;67485;48.816;9.930;2024-01-11T05:54:26;97810.63;;;-6.76;90.24
78210;BME280;67485;48.816;9.930;2024-01-11T05:56:53;97814.66;;;-6.64;89.86
78210;BME280;67485;48.816;9.930;2024-01-11T05:59:22;97816.75;;;-6.57;90.40
78210;BME280;67485;48.816;9.930;2024-01-11T06:01:47;97813.59;;;-6.68;90.31
78210;BME280;67485;48.816;9.930;2024-01-11T06:04:13;97815.19;;;-6.70;90.03
78210;BME280;67485;48.816;9.930;2024-01-11T06:06:40;97817.38;;;-6.76;90.07
78210;BME280;67485;48.816;9.930;2024-01-11T06:09:06;97818.72;;;-6.83;90.47
78210;BME280;67485;48.816;9.930;2024-01-11T06:11:31;97814.25;;;-6.87;91.08
78210;BME280;67485;48.816;9.930;2024-01-11T06:13:57;97821.88;;;-6.87;91.25
78210;BME280;67485;48.816;9.930;2024-01-11T06:16:23;97819.13;;;-6.90;91.53
78210;BME280;67485;48.816;9.930;2024-01-11T06:18:50;97817.31;;;-6.93;91.25
78210;BME280;67485;48.816;9.930;2024-01-11T06:21:16;97823.25;;;-6.92;91.39
78210;BME280;67485;48.816;9.930;2024-01-11T06:23:45;97830.47;;;-6.85;91.51
78210;BME280;67485;48.816;9.930;2024-01-11T06:26:11;97830.47;;;-6.85;91.33
78210;BME280;67485;48.816;9.930;2024-01-11T06:28:36;97823.63;;;-6.86;90.83
78210;BME280;67485;48.816;9.930;2024-01-11T06:31:02;97841.38;;;-6.88;91.42
78210;BME280;67485;48.816;9.930;2024-01-11T06:33:28;97836.81;;;-6.93;91.16
78210;BME280;67485;48.816;9.930;2024-01-11T06:35:54;97832.50;;;-6.94;91.74
78210;BME280;67485;48.816;9.930;2024-01-11T06:38:21;97843.66;;;-6.92;91.77
78210;BME280;67485;48.816;9.930;2024-01-11T06:40:48;97833.81;;;-7.01;91.42
78210;BME280;67485;48.816;9.930;2024-01-11T06:43:14;97819.75;;;-6.94;91.22
78210;BME280;67485;48.816;9.930;2024-01-11T06:45:42;97833.28;;;-6.95;91.04
78210;BME280;67485;48.816;9.930;2024-01-11T06:48:08;97824.50;;;-7.01;90.75
78210;BME280;67485;48.816;9.930;2024-01-11T06:50:34;97824.22;;;-7.05;90.85
78210;BME280;67485;48.816;9.930;2024-01-11T06:53:00;97822.59;;;-7.05;91.45
78210;BME280;67485;48.816;9.930;2024-01-11T06:55:26;97830.44;;;-7.15;91.18
78210;BME280;67485;48.816;9.930;2024-01-11T06:57:52;97832.91;;;-7.17;91.54
78210;BME280;67485;48.816;9.930;2024-01-11T07:00:18;97832.91;;;-7.17;91.50
78210;BME280;67485;48.816;9.930;2024-01-11T07:02:44;97840.56;;;-7.17;91.47
78210;BME280;67485;48.816;9.930;2024-01-11T07:05:10;97847.69;;;-7.11;91.25
78210;BME280;67485;48.816;9.930;2024-01-11T07:07:36;97847.69;;;-7.11;90.79
78210;BME280;67485;48.816;9.930;2024-01-11T07:10:01;97851.19;;;-7.09;90.83
78210;BME280;67485;48.816;9.930;2024-01-11T07:12:27;97852.59;;;-7.14;91.15
78210;BME280;67485;48.816;9.930;2024-01-11T07:14:53;97856.53;;;-7.19;91.67
78210;BME280;67485;48.816;9.930;2024-01-11T07:17:18;97859.09;;;-7.19;91.85
78210;BME280;67485;48.816;9.930;2024-01-11T07:19:44;97861.63;;;-7.19;91.86
78210;BME280;67485;48.816;9.930;2024-01-11T07:22:09;97854.88;;;-7.19;91.77
78210;BME280;67485;48.816;9.930;2024-01-11T07:24:35;97863.78;;;-7.12;91.88
78210;BME280;67485;48.816;9.930;2024-01-11T07:27:07;97860.59;;;-7.08;91.90
78210;BME280;67485;48.816;9.930;2024-01-11T07:29:33;97866.84;;;-7.03;91.61
78210;BME280;67485;48.816;9.930;2024-01-11T07:31:59;97873.78;;;-7.00;91.38
78210;BME280;67485;48.816;9.930;2024-01-11T07:34:25;97879.25;;;-6.94;91.45
78210;BME280;67485;48.816;9.930;2024-01-11T07:36:54;97874.50;;;-6.88;91.40
78210;BME280;67485;48.816;9.930;2024-01-11T07:39:20;97871.09;;;-6.88;90.44
78210;BME280;67485;48.816;9.930;2024-01-11T07:41:48;97875.22;;;-6.90;90.42
78210;BME280;67485;48.816;9.930;2024-01-11T07:44:13;97883.22;;;-6.84;90.49
78210;BME280;67485;48.816;9.930;2024-01-11T07:46:39;97884.91;;;-6.85;90.45
78210;BME280;67485;48.816;9.930;2024-01-11T07:49:06;97891.84;;;-6.82;90.68
78210;BME280;67485;48.816;9.930;2024-01-11T07:51:32;97897.91;;;-6.80;91.01
78210;BME280;67485;48.816;9.930;2024-01-11T07:53:58;97897.91;;;-6.80;90.35
78210;BME280;67485;48.816;9.930;2024-01-11T07:56:24;97897.66;;;-6.85;90.71
78210;BME280;67485;48.816;9.930;2024-01-11T07:58:50;97901.16;;;-6.82;91.02
78210;BME280;67485;48.816;9.930;2024-01-11T08:01:15;97901.50;;;-6.76;90.23
78210;BME280;67485;48.816;9.930;2024-01-11T08:03:42;97904.25;;;-6.73;90.90
78210;BME280;67485;48.816;9.930;2024-01-11T08:06:10;97919.78;;;-6.69;90.12
78210;BME280;67485;48.816;9.930;2024-01-11T08:08:39;97932.13;;;-6.61;89.97
78210;BME280;67485;48.816;9.930;2024-01-11T08:11:07;97929.31;;;-6.51;90.00
78210;BME280;67485;48.816;9.930;2024-01-11T08:13:32;97912.84;;;-6.26;89.30
78210;BME280;67485;48.816;9.930;2024-01-11T08:16:03;97919.97;;;-6.06;88.68
78210;BME280;67485;48.816;9.930;2024-01-11T08:18:33;97917.78;;;-5.83;87.51
78210;BME280;67485;48.816;9.930;2024-01-11T08:20:58;97911.31;;;-5.45;86.88
78210;BME280;67485;48.816;9.930;2024-01-11T08:23:24;97920.09;;;-5.40;84.92
78210;BME280;67485;48.816;9.930;2024-01-11T08:25:49;97927.94;;;-5.37;84.42
78210;BME280;67485;48.816;9.930;2024-01-11T08:28:15;97929.06;;;-5.31;84.46
78210;BME280;67485;48.816;9.930;2024-01-11T08:30:41;97932.25;;;-5.35;84.21
78210;BME280;67485;48.816;9.930;2024-01-11T08:33:08;97942.31;;;-5.39;84.06
78210;BME280;67485;48.816;9.930;2024-01-11T08:35:34;97933.50;;;-5.44;84.87
78210;BME280;67485;48.816;9.930;2024-01-11T08:38:00;97932.59;;;-5.29;84.81
78210;BME280;67485;48.816;9.930;2024-01-11T08:40:26;97935.78;;;-5.17;84.02
78210;BME280;67485;48.816;9.930;2024-01-11T08:42:52;97936.91;;;-5.12;83.59
78210;BME280;67485;48.816;9.930;2024-01-11T08:45:17;97931.47;;;-4.85;83.82
78210;BME280;67485;48.816;9.930;2024-01-11T08:47:44;97925.53;;;-4.67;83.03
78210;BME280;67485;48.816;9.930;2024-01-11T08:50:14;97926.47;;;-4.49;82.26
78210;BME280;67485;48.816;9.930;2024-01-11T08:52:41;97920.50;;;-4.31;81.69
78210;BME280;67485;48.816;9.930;2024-01-11T08:55:07;97917.75;;;-4.18;80.56
78210;BME280;67485;48.816;9.930;2024-01-11T08:57:33;97915.56;;;-3.74;80.25
78210;BME280;67485;48.816;9.930;2024-01-11T09:00:02;97914.94;;;-3.50;77.77
78210;BME280;67485;48.816;9.930;2024-01-11T09:02:28;97915.97;;;-3.47;77.28
78210;BME280;67485;48.816;9.930;2024-01-11T09:04:53;97921.16;;;-3.07;75.49
78210;BME280;67485;48.816;9.930;2024-01-11T09:07:19;97915.88;;;-2.71;74.44
78210;BME280;67485;48.816;9.930;2024-01-11T09:09:45;97914.53;;;-2.42;73.19
78210;BME280;67485;48.816;9.930;2024-01-11T09:12:11;97917.81;;;-2.25;71.42
78210;BME280;67485;48.816;9.930;2024-01-11T09:14:37;97920.78;;;-1.72;70.68
78210;BME280;67485;48.816;9.930;2024-01-11T09:17:02;97922.25;;;-1.56;69.41
78210;BME280;67485;48.816;9.930;2024-01-11T09:19:34;97931.31;;;-1.20;68.23
78210;BME280;67485;48.816;9.930;2024-01-11T09:22:00;97929.59;;;-0.97;67.46
78210;BME280;67485;48.816;9.930;2024-01-11T09:24:26;97932.25;;;-0.71;66.82
78210;BME280;67485;48.816;9.930;2024-01-11T09:26:51;97918.38;;;-0.51;65.55
78210;BME280;67485;48.816;9.930;2024-01-11T09:29:17;97928.72;;;-0.73;65.67
78210;BME280;67485;48.816;9.930;2024-01-11T09:31:43;97934.88;;;-0.70;66.04
78210;BME280;67485;48.816;9.930;2024-01-11T09:34:08;97937.03;;;-0.06;64.84
78210;BME280;67485;48.816;9.930;2024-01-11T09:36:34;97934.59;;;0.24;63.27
78210;BME280;67485;48.816;9.930;2024-01-11T09:39:00;97928.06;;;0.08;63.25
78210;BME280;67485;48.816;9.930;2024-01-11T09:41:26;97931.41;;;0.33;62.38
78210;BME280;67485;48.816;9.930;2024-01-11T09:43:54;97924.72;;;0.12;61.80
78210;BME280;67485;48.816;9.930;2024-01-11T09:46:20;97924.25;;;-0.03;62.64
78210;BME280;67485;48.816;9.930;2024-01-11T09:48:47;97933.66;;;0.22;61.96
78210;BME280;67485;48.816;9.930;2024-01-11T09:51:14;97929.13;;;0.42;61.47
78210;BME280;67485;48.816;9.930;2024-01-11T09:53:40;97944.28;;;0.06;62.38
78210;BME280;67485;48.816;9.930;2024-01-11T09:56:08;97942.97;;;0.19;61.87
78210;BME280;67485;48.816;9.930;2024-01-11T09:58:35;97938.56;;;0.42;61.41
78210;BME280;67485;48.816;9.930;2024-01-11T10:01:08;97931.91;;;0.77;61.06
78210;BME280;67485;48.816;9.930;2024-01-11T10:03:35;97936.31;;;1.10;60.49
78210;BME280;67485;48.816;9.930;2024-01-11T10:06:01;97937.16;;;1.41;59.57
78210;BME280;67485;48.816;9.930;2024-01-11T10:08:29;97905.50;;;2.17;57.65
78210;BME280;67485;48.816;9.930;2024-01-11T10:10:55;97905.69;;;2.63;55.66
78210;BME280;67485;48.816;9.930;2024-01-11T10:13:31;97901.34;;;2.24;55.47
78210;BME280;67485;48.816;9.930;2024-01-11T10:16:09;97898.81;;;2.25;56.09
78210;BME280;67485;48.816;9.930;2024-01-11T10:18:36;97883.38;;;2.68;55.02
78210;BME280;67485;48.816;9.930;2024-01-11T10:21:02;97876.28;;;3.47;53.58
78210;BME280;67485;48.816;9.930;2024-01-11T10:23:28;97869.75;;;3.67;52.20
78210;BME280;67485;48.816;9.930;2024-01-11T10:25:58;97875.13;;;2.88;53.97
78210;BME280;67485;48.816;9.930;2024-01-11T10:28:27;97887.50;;;3.93;52.56
78210;BME280;67485;48.816;9.930;2024-01-11T10:30:53;97876.50;;;3.59;52.46
78210;BME280;67485;48.816;9.930;2024-01-11T10:33:19;97878.56;;;3.77;53.18
78210;BME280;67485;48.816;9.930;2024-01-11T10:35:47;97879.28;;;3.70;53.15
78210;BME280;67485;48.816;9.930;2024-01-11T10:38:14;97875.50;;;4.01;51.73
78210;BME280;67485;48.816;9.930;2024-01-11T10:40:41;97877.44;;;4.15;50.89
78210;BME280;67485;48.816;9.930;2024-01-11T10:43:09;97880.34;;;4.35;51.36
78210;BME280;67485;48.816;9.930;2024-01-11T10:45:37;97885.22;;;4.15;51.96
78210;BME280;67485;48.816;9.930;2024-01-11T10:48:14;97885.00;;;4.56;50.38
78210;BME280;67485;48.816;9.930;2024-01-11T10:50:50;97874.28;;;5.79;48.29
78210;BME280;67485;48.816;9.930;2024-01-11T10:53:28;97876.16;;;5.95;47.87
78210;BME280;67485;48.816;9.930;2024-01-11T10:55:58;97891.75;;;4.45;50.21
78210;BME280;67485;48.816;9.930;2024-01-11T10:58:25;97894.50;;;4.00;51.49
78210;BME280;67485;48.816;9.930;2024-01-11T11:00:53;97890.63;;;3.29;52.29
78210;BME280;67485;48.816;9.930;2024-01-11T11:03:25;97898.22;;;3.20;53.39
78210;BME280;67485;48.816;9.930;2024-01-11T11:05:54;97890.09;;;3.93;51.67
78210;BME280;67485;48.816;9.930;2024-01-11T11:08:23;97892.94;;;4.12;52.28
78210;BME280;67485;48.816;9.930;2024-01-11T11:10:54;97895.56;;;4.71;50.07
78210;BME280;67485;48.816;9.930;2024-01-11T11:13:21;97894.66;;;4.66;49.02
78210;BME280;67485;48.816;9.930;2024-01-11T11:15:47;97898.94;;;4.64;49.62
78210;BME280;67485;48.816;9.930;2024-01-11T11:18:14;97890.78;;;5.02;49.33
78210;BME280;67485;48.816;9.930;2024-01-11T11:20:40;97884.56;;;5.66;48.24
78210;BME280;67485;48.816;9.930;2024-01-11T11:23:10;97886.34;;;5.71;47.71
78210;BME280;67485;48.816;9.930;2024-01-11T11:25:37;97886.72;;;6.08;47.15
78210;BME280;67485;48.816;9.930;2024-01-11T11:28:04;97878.31;;;6.41;46.46
78210;BME280;67485;48.816;9.930;2024-01-11T11:30:31;97876.56;;;6.40;46.17
78210;BME280;67485;48.816;9.930;2024-01-11T11:32:56;97869.59;;;6.41;46.49
78210;BME280;67485;48.816;9.930;2024-01-11T11:35:25;97850.78;;;6.94;45.58
78210;BME280;67485;48.816;9.930;2024-01-11T11:37:57;97850.91;;;7.28;44.54
78210;BME280;67485;48.816;9.930;2024-01-11T11:40:33;97829.13;;;7.06;43.66
78210;BME280;67485;48.816;9.930;2024-01-11T11:43:02;97843.47;;;6.28;46.18
78210;BME280;67485;48.816;9.930;2024-01-11T11:45:30;97855.59;;;6.23;45.35
78210;BME280;67485;48.816;9.930;2024-01-11T11:47:57;97853.25;;;6.62;45.63
78210;BME280;67485;48.816;9.930;2024-01-11T11:50:23;97861.16;;;6.82;45.56
78210;BME280;67485;48.816;9.930;2024-01-11T11:52:55;97854.41;;;7.40;44.72
78210;BME280;67485;48.816;9.930;2024-01-11T11:55:24;97833.66;;;8.06;42.80
78210;BME280;67485;48.816;9.930;2024-01-11T11:57:53;97825.81;;;7.74;42.12
78210;BME280;67485;48.816;9.930;2024-01-11T12:00:23;97830.09;;;7.39;42.73
78210;BME280;67485;48.816;9.930;2024-01-11T12:02:49;97833.56;;;7.40;42.75
78210;BME280;67485;48.816;9.930;2024-01-11T12:05:17;97828.19;;;6.93;43.61
78210;BME280;67485;48.816;9.930;2024-01-11T12:07:44;97824.75;;;6.99;45.04
78210;BME280;67485;48.816;9.930;2024-01-11T12:10:12;97825.63;;;6.95;44.19
78210;BME280;67485;48.816;9.930;2024-01-11T12:12:38;97813.56;;;7.43;43.61
78210;BME280;67485;48.816;9.930;2024-01-11T12:15:05;97818.81;;;7.60;43.80
78210;BME280;67485;48.816;9.930;2024-01-11T12:17:31;97822.28;;;7.44;42.50
78210;BME280;67485;48.816;9.930;2024-01-11T12:19:57;97825.75;;;7.34;44.16
78210;BME280;67485;48.816;9.930;2024-01-11T12:22:23;97825.59;;;6.90;44.17
78210;BME280;67485;48.816;9.930;2024-01-11T12:24:49;97821.97;;;6.62;45.33
78210;BME280;67485;48.816;9.930;2024-01-11T12:27:15;97832.66;;;5.79;46.58
78210;BME280;67485;48.816;9.930;2024-01-11T12:29:40;97836.78;;;6.68;45.68
78210;BME280;67485;48.816;9.930;2024-01-11T12:32:07;97831.03;;;5.93;46.78
78210;BME280;67485;48.816;9.930;2024-01-11T12:34:36;97829.78;;;5.46;46.87
78210;BME280;67485;48.816;9.930;2024-01-11T12:37:02;97831.63;;;4.80;48.32
78210;BME280;67485;48.816;9.930;2024-01-11T12:39:31;97831.19;;;4.46;49.28
78210;BME280;67485;48.816;9.930;2024-01-11T12:41:57;97828.72;;;3.95;50.87
78210;BME280;67485;48.816;9.930;2024-01-11T12:44:23;97824.63;;;4.11;50.75
78210;BME280;67485;48.816;9.930;2024-01-11T12:46:53;97820.41;;;4.18;50.62
78210;BME280;67485;48.816;9.930;2024-01-11T12:49:19;97822.22;;;4.22;50.40
78210;BME280;67485;48.816;9.930;2024-01-11T12:51:45;97808.13;;;4.69;51.01
78210;BME280;67485;48.816;9.930;2024-01-11T12:54:12;97803.34;;;4.35;50.21
78210;BME280;67485;48.816;9.930;2024-01-11T12:56:42;97812.88;;;3.28;53.51
78210;BME280;67485;48.816;9.930;2024-01-11T12:59:09;97813.78;;;2.41;54.39
78210;BME280;67485;48.816;9.930;2024-01-11T13:01:38;97812.19;;;2.48;56.19
78210;BME280;67485;48.816;9.930;2024-01-11T13:04:04;97813.53;;;2.30;56.57
78210;BME280;67485;48.816;9.930;2024-01-11T13:06:31;97814.38;;;1.91;56.41
78210;BME280;67485;48.816;9.930;2024-01-11T13:08:57;97819.38;;;1.15;59.10
78210;BME280;67485;48.816;9.930;2024-01-11T13:11:24;97827.09;;;0.83;60.37
78210;BME280;67485;48.816;9.930;2024-01-11T13:13:53;97821.88;;;0.79;61.47
78210;BME280;67485;48.816;9.930;2024-01-11T13:16:19;97814.09;;;0.78;61.12